Glen Morgan, West Virginia
Current Conditions -  °F | °C
As of 7:51 PM on Tuesday 27 Jan 2015 (Local Time) from KBKW Reporting Station
Light Snow Light Snow  
Wind Chill:   Ceiling: 1900
Heat Index: 18°   Visibility: 7mi
Dew Point: 11°   Wind: 10mph
Humidity: 74%   Direction: 340°NNW
Pressure: 29.99"   Gusts: NA
Location:  37.76°N, 81.16°W
Report Text: KBKW 280051Z AUTO 34009KT 7SM -SN OVC019 M08/M12 A2999 RMK AO2 SNB42 SLP205 P0000 T10781117
Loading
Personal Weather Stations






























Interactive Weather Map New forecast layout! Learn more

10-Day Weather Forecast

Advertisements
Track Severe Weather on mobile